sensor_id;sensor_type;location;lat;lon;timestamp;temperature;humidity
19017;DHT22;9641;51.494;6.670;2022-11-10T00:02:33;10.30;99.90
19017;DHT22;9641;51.494;6.670;2022-11-10T00:05:19;10.30;99.90
19017;DHT22;9641;51.494;6.670;2022-11-10T00:08:06;10.30;99.90
19017;DHT22;9641;51.494;6.670;2022-11-10T00:10:53;10.30;99.90
19017;DHT22;9641;51.494;6.670;2022-11-10T00:13:48;10.30;99.90
19017;DHT22;9641;51.494;6.670;2022-11-10T00:16:51;10.30;99.90
19017;DHT22;9641;51.494;6.670;2022-11-10T00:19:45;10.30;99.90
19017;DHT22;9641;51.494;6.670;2022-11-10T00:22:33;10.30;99.90
19017;DHT22;9641;51.494;6.670;2022-11-10T00:25:18;10.30;99.90
19017;DHT22;9641;51.494;6.670;2022-11-10T00:28:04;10.30;99.90
19017;DHT22;9641;51.494;6.670;2022-11-10T00:30:50;10.30;99.90
19017;DHT22;9641;51.494;6.670;2022-11-10T00:33:36;10.30;99.90
19017;DHT22;9641;51.494;6.670;2022-11-10T00:36:22;10.30;99.90
19017;DHT22;9641;51.494;6.670;2022-11-10T00:39:09;10.20;99.90
19017;DHT22;9641;51.494;6.670;2022-11-10T00:41:55;10.20;99.90
19017;DHT22;9641;51.494;6.670;2022-11-10T00:44:40;10.20;99.90
19017;DHT22;9641;51.494;6.670;2022-11-10T00:47:26;10.20;99.90
19017;DHT22;9641;51.494;6.670;2022-11-10T00:50:11;10.20;99.90
19017;DHT22;9641;51.494;6.670;2022-11-10T00:52:57;10.20;99.90
19017;DHT22;9641;51.494;6.670;2022-11-10T00:55:44;10.20;99.90
19017;DHT22;9641;51.494;6.670;2022-11-10T00:58:29;10.10;99.90
19017;DHT22;9641;51.494;6.670;2022-11-10T01:01:15;10.10;99.90
19017;DHT22;9641;51.494;6.670;2022-11-10T01:04:01;10.10;99.90
19017;DHT22;9641;51.494;6.670;2022-11-10T01:06:47;10.10;99.90
19017;DHT22;9641;51.494;6.670;2022-11-10T01:09:34;10.10;99.90
19017;DHT22;9641;51.494;6.670;2022-11-10T01:12:21;10.10;99.90
19017;DHT22;9641;51.494;6.670;2022-11-10T01:15:08;10.10;99.90
19017;DHT22;9641;51.494;6.670;2022-11-10T01:17:55;10.10;99.90
19017;DHT22;9641;51.494;6.670;2022-11-10T01:20:40;10.00;99.90
19017;DHT22;9641;51.494;6.670;2022-11-10T01:23:26;10.00;99.90
19017;DHT22;9641;51.494;6.670;2022-11-10T01:26:12;10.00;99.90
19017;DHT22;9641;51.494;6.670;2022-11-10T01:29:00;9.90;99.90
19017;DHT22;9641;51.494;6.670;2022-11-10T01:31:47;9.90;99.90
19017;DHT22;9641;51.494;6.670;2022-11-10T01:34:32;10.00;99.90
19017;DHT22;9641;51.494;6.670;2022-11-10T01:37:18;10.00;99.90
19017;DHT22;9641;51.494;6.670;2022-11-10T01:40:05;10.00;99.90
19017;DHT22;9641;51.494;6.670;2022-11-10T01:42:52;10.00;99.90
19017;DHT22;9641;51.494;6.670;2022-11-10T01:45:48;10.10;99.90
19017;DHT22;9641;51.494;6.670;2022-11-10T01:48:38;10.10;99.90
19017;DHT22;9641;51.494;6.670;2022-11-10T01:51:28;10.00;99.90
19017;DHT22;9641;51.494;6.670;2022-11-10T01:54:18;10.10;99.90
19017;DHT22;9641;51.494;6.670;2022-11-10T01:57:07;10.00;99.90
19017;DHT22;9641;51.494;6.670;2022-11-10T01:59:53;10.00;99.90
19017;DHT22;9641;51.494;6.670;2022-11-10T02:02:45;10.00;99.90
19017;DHT22;9641;51.494;6.670;2022-11-10T02:05:31;10.00;99.90
19017;DHT22;9641;51.494;6.670;2022-11-10T02:08:18;10.00;99.90
19017;DHT22;9641;51.494;6.670;2022-11-10T02:11:04;9.90;99.90
19017;DHT22;9641;51.494;6.670;2022-11-10T02:13:50;9.90;99.90
19017;DHT22;9641;51.494;6.670;2022-11-10T02:16:37;9.90;99.90
19017;DHT22;9641;51.494;6.670;2022-11-10T02:19:26;9.80;99.90
19017;DHT22;9641;51.494;6.670;2022-11-10T02:22:13;9.90;99.90
19017;DHT22;9641;51.494;6.670;2022-11-10T02:24:58;9.80;99.90
19017;DHT22;9641;51.494;6.670;2022-11-10T02:27:44;9.80;99.90
19017;DHT22;9641;51.494;6.670;2022-11-10T02:30:29;9.80;99.90
19017;DHT22;9641;51.494;6.670;2022-11-10T02:33:15;9.80;99.90
19017;DHT22;9641;51.494;6.670;2022-11-10T02:36:02;9.80;99.90
19017;DHT22;9641;51.494;6.670;2022-11-10T02:38:49;9.80;99.90
19017;DHT22;9641;51.494;6.670;2022-11-10T02:41:35;9.80;99.90
19017;DHT22;9641;51.494;6.670;2022-11-10T02:44:20;9.80;99.90
19017;DHT22;9641;51.494;6.670;2022-11-10T02:47:06;9.80;99.90
19017;DHT22;9641;51.494;6.670;2022-11-10T02:49:52;9.80;99.90
19017;DHT22;9641;51.494;6.670;2022-11-10T02:52:38;9.80;99.90
19017;DHT22;9641;51.494;6.670;2022-11-10T02:55:25;9.80;99.90
19017;DHT22;9641;51.494;6.670;2022-11-10T02:58:10;9.80;99.90
19017;DHT22;9641;51.494;6.670;2022-11-10T03:00:55;9.80;99.90
19017;DHT22;9641;51.494;6.670;2022-11-10T03:03:41;9.80;99.90
19017;DHT22;9641;51.494;6.670;2022-11-10T03:06:26;9.80;99.90
19017;DHT22;9641;51.494;6.670;2022-11-10T03:09:12;9.80;99.90
19017;DHT22;9641;51.494;6.670;2022-11-10T03:11:59;9.80;99.90
19017;DHT22;9641;51.494;6.670;2022-11-10T03:14:44;9.90;99.90
19017;DHT22;9641;51.494;6.670;2022-11-10T03:17:30;9.90;99.90
19017;DHT22;9641;51.494;6.670;2022-11-10T03:20:17;9.90;99.90
19017;DHT22;9641;51.494;6.670;2022-11-10T03:23:03;9.90;99.90
19017;DHT22;9641;51.494;6.670;2022-11-10T03:25:49;9.90;99.90
19017;DHT22;9641;51.494;6.670;2022-11-10T03:28:36;9.90;99.90
19017;DHT22;9641;51.494;6.670;2022-11-10T03:31:22;9.90;99.90
19017;DHT22;9641;51.494;6.670;2022-11-10T03:34:07;9.90;99.90
19017;DHT22;9641;51.494;6.670;2022-11-10T03:36:53;9.90;99.90
19017;DHT22;9641;51.494;6.670;2022-11-10T03:39:38;9.90;99.90
19017;DHT22;9641;51.494;6.670;2022-11-10T03:42:24;9.90;99.90
19017;DHT22;9641;51.494;6.670;2022-11-10T03:45:12;9.80;99.90
19017;DHT22;9641;51.494;6.670;2022-11-10T03:47:58;9.80;99.90
19017;DHT22;9641;51.494;6.670;2022-11-10T03:50:44;9.70;99.90
19017;DHT22;9641;51.494;6.670;2022-11-10T03:53:29;9.70;99.90
19017;DHT22;9641;51.494;6.670;2022-11-10T03:56:15;9.70;99.90
19017;DHT22;9641;51.494;6.670;2022-11-10T03:59:01;9.70;99.90
19017;DHT22;9641;51.494;6.670;2022-11-10T04:01:48;9.70;99.90
19017;DHT22;9641;51.494;6.670;2022-11-10T04:04:33;9.60;99.90
19017;DHT22;9641;51.494;6.670;2022-11-10T04:07:36;9.60;99.90
19017;DHT22;9641;51.494;6.670;2022-11-10T04:10:39;9.60;99.90
19017;DHT22;9641;51.494;6.670;2022-11-10T04:13:25;9.60;99.90
19017;DHT22;9641;51.494;6.670;2022-11-10T04:16:28;9.50;99.90
19017;DHT22;9641;51.494;6.670;2022-11-10T04:19:15;9.60;99.90
19017;DHT22;9641;51.494;6.670;2022-11-10T04:22:00;9.60;99.90
19017;DHT22;9641;51.494;6.670;2022-11-10T04:24:46;9.60;99.90
19017;DHT22;9641;51.494;6.670;2022-11-10T04:27:31;9.60;99.90
19017;DHT22;9641;51.494;6.670;2022-11-10T04:30:17;9.60;99.90
19017;DHT22;9641;51.494;6.670;2022-11-10T04:33:02;9.60;99.90
19017;DHT22;9641;51.494;6.670;2022-11-10T04:35:49;9.60;99.90
19017;DHT22;9641;51.494;6.670;2022-11-10T04:38:34;9.60;99.90
19017;DHT22;9641;51.494;6.670;2022-11-10T04:41:20;9.60;99.90
19017;DHT22;9641;51.494;6.670;2022-11-10T04:44:06;9.60;99.90
19017;DHT22;9641;51.494;6.670;2022-11-10T04:46:51;9.60;99.90
19017;DHT22;9641;51.494;6.670;2022-11-10T04:49:36;9.60;99.90
19017;DHT22;9641;51.494;6.670;2022-11-10T04:52:23;9.50;99.90
19017;DHT22;9641;51.494;6.670;2022-11-10T04:55:09;9.50;99.90
19017;DHT22;9641;51.494;6.670;2022-11-10T04:57:54;9.50;99.90
19017;DHT22;9641;51.494;6.670;2022-11-10T05:00:40;9.40;99.90
19017;DHT22;9641;51.494;6.670;2022-11-10T05:03:26;9.40;99.90
19017;DHT22;9641;51.494;6.670;2022-11-10T05:06:12;9.50;99.90
19017;DHT22;9641;51.494;6.670;2022-11-10T05:08:59;9.50;99.90
19017;DHT22;9641;51.494;6.670;2022-11-10T05:11:44;9.50;99.90
19017;DHT22;9641;51.494;6.670;2022-11-10T05:14:29;9.40;99.90
19017;DHT22;9641;51.494;6.670;2022-11-10T05:17:15;9.50;99.90
19017;DHT22;9641;51.494;6.670;2022-11-10T05:20:01;9.40;99.90
19017;DHT22;9641;51.494;6.670;2022-11-10T05:22:48;9.40;99.90
19017;DHT22;9641;51.494;6.670;2022-11-10T05:25:49;9.40;99.90
19017;DHT22;9641;51.494;6.670;2022-11-10T05:28:35;9.40;99.90
19017;DHT22;9641;51.494;6.670;2022-11-10T05:31:20;9.30;99.90
19017;DHT22;9641;51.494;6.670;2022-11-10T05:34:06;9.30;99.90
19017;DHT22;9641;51.494;6.670;2022-11-10T05:36:52;9.20;99.90
19017;DHT22;9641;51.494;6.670;2022-11-10T05:39:37;9.20;99.90
19017;DHT22;9641;51.494;6.670;2022-11-10T05:42:24;9.20;99.90
19017;DHT22;9641;51.494;6.670;2022-11-10T05:45:11;9.20;99.90
19017;DHT22;9641;51.494;6.670;2022-11-10T05:47:56;9.20;99.90
19017;DHT22;9641;51.494;6.670;2022-11-10T05:50:42;9.20;99.90
19017;DHT22;9641;51.494;6.670;2022-11-10T05:53:28;9.30;99.90
19017;DHT22;9641;51.494;6.670;2022-11-10T05:56:13;9.30;99.90
19017;DHT22;9641;51.494;6.670;2022-11-10T05:59:00;9.30;99.90
19017;DHT22;9641;51.494;6.670;2022-11-10T06:01:46;9.30;99.90
19017;DHT22;9641;51.494;6.670;2022-11-10T06:04:31;9.30;99.90
19017;DHT22;9641;51.494;6.670;2022-11-10T06:07:17;9.30;99.90
19017;DHT22;9641;51.494;6.670;2022-11-10T06:10:03;9.30;99.90
19017;DHT22;9641;51.494;6.670;2022-11-10T06:12:49;9.30;99.90
19017;DHT22;9641;51.494;6.670;2022-11-10T06:15:36;9.30;99.90
19017;DHT22;9641;51.494;6.670;2022-11-10T06:18:21;9.30;99.90
19017;DHT22;9641;51.494;6.670;2022-11-10T06:21:07;9.30;99.90
19017;DHT22;9641;51.494;6.670;2022-11-10T06:23:53;9.30;99.90
19017;DHT22;9641;51.494;6.670;2022-11-10T06:26:39;9.30;99.90
19017;DHT22;9641;51.494;6.670;2022-11-10T06:29:24;9.20;99.90
19017;DHT22;9641;51.494;6.670;2022-11-10T06:32:11;9.20;99.90
19017;DHT22;9641;51.494;6.670;2022-11-10T06:34:57;9.20;99.90
19017;DHT22;9641;51.494;6.670;2022-11-10T06:37:42;9.20;99.90
19017;DHT22;9641;51.494;6.670;2022-11-10T06:40:29;9.20;99.90
19017;DHT22;9641;51.494;6.670;2022-11-10T06:43:14;9.20;99.90
19017;DHT22;9641;51.494;6.670;2022-11-10T06:46:00;9.30;99.90
19017;DHT22;9641;51.494;6.670;2022-11-10T06:48:47;9.20;99.90
19017;DHT22;9641;51.494;6.670;2022-11-10T06:51:33;9.20;99.90
19017;DHT22;9641;51.494;6.670;2022-11-10T06:54:18;9.30;99.90
19017;DHT22;9641;51.494;6.670;2022-11-10T06:57:04;9.30;99.90
19017;DHT22;9641;51.494;6.670;2022-11-10T06:59:49;9.30;99.90
19017;DHT22;9641;51.494;6.670;2022-11-10T07:02:35;9.30;99.90
19017;DHT22;9641;51.494;6.670;2022-11-10T07:05:22;9.40;99.90
19017;DHT22;9641;51.494;6.670;2022-11-10T07:08:09;9.40;99.90
19017;DHT22;9641;51.494;6.670;2022-11-10T07:10:59;9.30;99.90
19017;DHT22;9641;51.494;6.670;2022-11-10T07:13:45;9.30;99.90
19017;DHT22;9641;51.494;6.670;2022-11-10T07:16:30;9.30;99.90
19017;DHT22;9641;51.494;6.670;2022-11-10T07:19:16;9.40;99.90
19017;DHT22;9641;51.494;6.670;2022-11-10T07:22:03;9.40;99.90
19017;DHT22;9641;51.494;6.670;2022-11-10T07:24:49;9.40;99.90
19017;DHT22;9641;51.494;6.670;2022-11-10T07:27:34;9.40;99.90
19017;DHT22;9641;51.494;6.670;2022-11-10T07:30:20;9.40;99.90
19017;DHT22;9641;51.494;6.670;2022-11-10T07:33:06;9.50;99.90
19017;DHT22;9641;51.494;6.670;2022-11-10T07:35:55;9.50;99.90
19017;DHT22;9641;51.494;6.670;2022-11-10T07:38:42;9.60;99.90
19017;DHT22;9641;51.494;6.670;2022-11-10T07:41:27;9.60;99.90
19017;DHT22;9641;51.494;6.670;2022-11-10T07:44:13;9.60;99.90
19017;DHT22;9641;51.494;6.670;2022-11-10T07:46:58;9.60;99.90
19017;DHT22;9641;51.494;6.670;2022-11-10T07:49:44;9.70;99.90
19017;DHT22;9641;51.494;6.670;2022-11-10T07:52:29;9.70;99.90
19017;DHT22;9641;51.494;6.670;2022-11-10T07:55:16;9.80;99.90
19017;DHT22;9641;51.494;6.670;2022-11-10T07:58:02;9.80;99.90
19017;DHT22;9641;51.494;6.670;2022-11-10T08:00:47;9.90;99.90
19017;DHT22;9641;51.494;6.670;2022-11-10T08:03:32;9.90;99.90
19017;DHT22;9641;51.494;6.670;2022-11-10T08:06:18;9.90;99.90
19017;DHT22;9641;51.494;6.670;2022-11-10T08:09:03;10.00;99.90
19017;DHT22;9641;51.494;6.670;2022-11-10T08:11:50;10.00;99.90
19017;DHT22;9641;51.494;6.670;2022-11-10T08:14:36;10.20;99.90
19017;DHT22;9641;51.494;6.670;2022-11-10T08:17:21;10.20;99.90
19017;DHT22;9641;51.494;6.670;2022-11-10T08:20:08;10.30;99.90
19017;DHT22;9641;51.494;6.670;2022-11-10T08:22:56;10.30;99.90
19017;DHT22;9641;51.494;6.670;2022-11-10T08:25:42;10.40;99.90
19017;DHT22;9641;51.494;6.670;2022-11-10T08:28:31;10.40;99.90
19017;DHT22;9641;51.494;6.670;2022-11-10T08:31:17;10.40;99.90
19017;DHT22;9641;51.494;6.670;2022-11-10T08:34:03;10.50;99.90
19017;DHT22;9641;51.494;6.670;2022-11-10T08:36:50;10.50;99.90
19017;DHT22;9641;51.494;6.670;2022-11-10T08:39:36;10.60;99.90
19017;DHT22;9641;51.494;6.670;2022-11-10T08:42:22;10.70;99.90
19017;DHT22;9641;51.494;6.670;2022-11-10T08:45:10;10.70;99.90
19017;DHT22;9641;51.494;6.670;2022-11-10T08:47:56;10.70;99.90
19017;DHT22;9641;51.494;6.670;2022-11-10T08:51:14;10.80;99.90
19017;DHT22;9641;51.494;6.670;2022-11-10T08:54:00;10.80;99.90
19017;DHT22;9641;51.494;6.670;2022-11-10T08:56:46;10.90;99.90
19017;DHT22;9641;51.494;6.670;2022-11-10T08:59:31;10.90;99.90
19017;DHT22;9641;51.494;6.670;2022-11-10T09:02:18;11.00;99.90
19017;DHT22;9641;51.494;6.670;2022-11-10T09:05:04;11.10;99.90
19017;DHT22;9641;51.494;6.670;2022-11-10T09:07:50;11.20;99.90
19017;DHT22;9641;51.494;6.670;2022-11-10T09:10:38;11.20;99.90
19017;DHT22;9641;51.494;6.670;2022-11-10T09:13:23;11.30;99.90
19017;DHT22;9641;51.494;6.670;2022-11-10T09:16:09;11.40;99.90
19017;DHT22;9641;51.494;6.670;2022-11-10T09:18:55;11.50;99.90
19017;DHT22;9641;51.494;6.670;2022-11-10T09:21:41;11.50;99.90
19017;DHT22;9641;51.494;6.670;2022-11-10T09:24:27;11.60;99.90
19017;DHT22;9641;51.494;6.670;2022-11-10T09:27:12;11.70;99.90
19017;DHT22;9641;51.494;6.670;2022-11-10T09:29:58;11.80;99.90
19017;DHT22;9641;51.494;6.670;2022-11-10T09:32:43;11.90;99.90
19017;DHT22;9641;51.494;6.670;2022-11-10T09:35:31;12.00;94.30
19017;DHT22;9641;51.494;6.670;2022-11-10T09:38:16;12.10;89.90
19017;DHT22;9641;51.494;6.670;2022-11-10T09:41:03;12.10;90.60
19017;DHT22;9641;51.494;6.670;2022-11-10T09:43:58;12.20;84.60
19017;DHT22;9641;51.494;6.670;2022-11-10T09:46:49;12.30;71.50
19017;DHT22;9641;51.494;6.670;2022-11-10T09:49:38;12.30;61.60
19017;DHT22;9641;51.494;6.670;2022-11-10T09:52:28;12.40;36.20
19017;DHT22;9641;51.494;6.670;2022-11-10T09:55:27;12.50;29.30
19017;DHT22;9641;51.494;6.670;2022-11-10T09:58:14;12.50;38.70
19017;DHT22;9641;51.494;6.670;2022-11-10T10:01:11;12.70;6.80
19017;DHT22;9641;51.494;6.670;2022-11-10T10:04:04;12.70;15.50
19017;DHT22;9641;51.494;6.670;2022-11-10T10:06:57;12.80;14.50
19017;DHT22;9641;51.494;6.670;2022-11-10T10:09:53;12.90;10.30
19017;DHT22;9641;51.494;6.670;2022-11-10T10:12:52;13.00;1.00
19017;DHT22;9641;51.494;6.670;2022-11-10T10:15:57;13.10;1.00
19017;DHT22;9641;51.494;6.670;2022-11-10T10:18:52;13.20;1.00
19017;DHT22;9641;51.494;6.670;2022-11-10T10:21:44;13.30;1.00
19017;DHT22;9641;51.494;6.670;2022-11-10T10:24:36;13.40;1.00
19017;DHT22;9641;51.494;6.670;2022-11-10T10:27:25;13.60;1.00
19017;DHT22;9641;51.494;6.670;2022-11-10T10:30:14;13.80;1.00
19017;DHT22;9641;51.494;6.670;2022-11-10T10:33:10;13.90;1.00
19017;DHT22;9641;51.494;6.670;2022-11-10T10:36:01;14.00;1.00
19017;DHT22;9641;51.494;6.670;2022-11-10T10:38:51;14.10;1.00
19017;DHT22;9641;51.494;6.670;2022-11-10T10:41:41;14.20;1.00
19017;DHT22;9641;51.494;6.670;2022-11-10T10:44:30;14.40;1.00
19017;DHT22;9641;51.494;6.670;2022-11-10T10:47:16;14.60;1.00
19017;DHT22;9641;51.494;6.670;2022-11-10T10:50:18;14.80;1.00
19017;DHT22;9641;51.494;6.670;2022-11-10T10:53:06;15.00;99.90
19017;DHT22;9641;51.494;6.670;2022-11-10T10:55:55;15.00;99.90
19017;DHT22;9641;51.494;6.670;2022-11-10T10:58:54;15.30;99.90
19017;DHT22;9641;51.494;6.670;2022-11-10T11:01:42;15.50;99.90
19017;DHT22;9641;51.494;6.670;2022-11-10T11:04:33;15.90;99.90
19017;DHT22;9641;51.494;6.670;2022-11-10T11:07:20;16.20;99.90
19017;DHT22;9641;51.494;6.670;2022-11-10T11:10:18;16.50;1.00
19017;DHT22;9641;51.494;6.670;2022-11-10T11:13:14;16.80;99.90
19017;DHT22;9641;51.494;6.670;2022-11-10T11:16:01;17.30;1.00
19017;DHT22;9641;51.494;6.670;2022-11-10T11:18:49;17.80;32.30
19017;DHT22;9641;51.494;6.670;2022-11-10T11:21:42;18.20;1.00
19017;DHT22;9641;51.494;6.670;2022-11-10T11:24:35;18.80;1.00
19017;DHT22;9641;51.494;6.670;2022-11-10T11:27:28;19.30;1.00
19017;DHT22;9641;51.494;6.670;2022-11-10T11:30:17;19.40;1.00
19017;DHT22;9641;51.494;6.670;2022-11-10T11:33:20;19.40;1.00
19017;DHT22;9641;51.494;6.670;2022-11-10T11:36:19;19.20;1.00
19017;DHT22;9641;51.494;6.670;2022-11-10T11:39:19;19.40;1.00
19017;DHT22;9641;51.494;6.670;2022-11-10T11:42:14;20.20;1.00
19017;DHT22;9641;51.494;6.670;2022-11-10T11:45:14;20.60;1.00
19017;DHT22;9641;51.494;6.670;2022-11-10T11:48:10;21.00;1.00
19017;DHT22;9641;51.494;6.670;2022-11-10T11:51:09;21.00;1.00
19017;DHT22;9641;51.494;6.670;2022-11-10T11:54:14;20.80;1.00
19017;DHT22;9641;51.494;6.670;2022-11-10T11:57:14;21.30;1.00
19017;DHT22;9641;51.494;6.670;2022-11-10T12:00:06;22.40;1.00
19017;DHT22;9641;51.494;6.670;2022-11-10T12:03:38;22.80;1.00
19017;DHT22;9641;51.494;6.670;2022-11-10T12:06:34;23.70;1.00
19017;DHT22;9641;51.494;6.670;2022-11-10T12:09:31;23.70;1.00
19017;DHT22;9641;51.494;6.670;2022-11-10T12:15:39;23.50;1.00
19017;DHT22;9641;51.494;6.670;2022-11-10T12:18:30;23.10;1.00
19017;DHT22;9641;51.494;6.670;2022-11-10T12:21:21;23.00;1.00
19017;DHT22;9641;51.494;6.670;2022-11-10T12:24:33;22.20;1.00
19017;DHT22;9641;51.494;6.670;2022-11-10T12:27:25;21.80;1.00
19017;DHT22;9641;51.494;6.670;2022-11-10T12:30:13;22.10;1.00
19017;DHT22;9641;51.494;6.670;2022-11-10T12:33:02;23.00;1.00
19017;DHT22;9641;51.494;6.670;2022-11-10T12:35:52;22.40;1.00
19017;DHT22;9641;51.494;6.670;2022-11-10T12:38:43;22.60;1.00
19017;DHT22;9641;51.494;6.670;2022-11-10T12:41:36;22.80;1.00
19017;DHT22;9641;51.494;6.670;2022-11-10T12:44:27;23.10;1.00
19017;DHT22;9641;51.494;6.670;2022-11-10T12:47:17;24.00;1.00
19017;DHT22;9641;51.494;6.670;2022-11-10T12:53:20;24.20;1.00
19017;DHT22;9641;51.494;6.670;2022-11-10T12:56:12;23.30;1.00
19017;DHT22;9641;51.494;6.670;2022-11-10T12:59:22;22.60;1.00
19017;DHT22;9641;51.494;6.670;2022-11-10T13:02:22;22.10;1.00
19017;DHT22;9641;51.494;6.670;2022-11-10T13:05:23;22.00;1.00
19017;DHT22;9641;51.494;6.670;2022-11-10T13:11:25;22.80;1.00
19017;DHT22;9641;51.494;6.670;2022-11-10T13:14:27;23.30;1.00
19017;DHT22;9641;51.494;6.670;2022-11-10T13:17:51;23.60;1.00
19017;DHT22;9641;51.494;6.670;2022-11-10T13:20:51;23.60;1.00
19017;DHT22;9641;51.494;6.670;2022-11-10T13:27:03;23.30;1.00
19017;DHT22;9641;51.494;6.670;2022-11-10T13:29:55;22.10;99.90
19017;DHT22;9641;51.494;6.670;2022-11-10T13:32:41;21.20;99.90
19017;DHT22;9641;51.494;6.670;2022-11-10T13:35:44;20.90;99.90
19017;DHT22;9641;51.494;6.670;2022-11-10T13:38:38;20.70;99.90
19017;DHT22;9641;51.494;6.670;2022-11-10T13:41:25;20.40;99.90
19017;DHT22;9641;51.494;6.670;2022-11-10T13:44:21;20.60;99.90
19017;DHT22;9641;51.494;6.670;2022-11-10T13:47:50;20.50;99.90
19017;DHT22;9641;51.494;6.670;2022-11-10T13:50:47;20.00;99.90
19017;DHT22;9641;51.494;6.670;2022-11-10T13:53:39;19.60;99.90
19017;DHT22;9641;51.494;6.670;2022-11-10T13:56:43;18.90;99.90
19017;DHT22;9641;51.494;6.670;2022-11-10T13:59:31;18.70;99.90
19017;DHT22;9641;51.494;6.670;2022-11-10T14:02:45;18.90;99.90
19017;DHT22;9641;51.494;6.670;2022-11-10T14:06:05;18.50;99.90
19017;DHT22;9641;51.494;6.670;2022-11-10T14:08:55;18.00;99.90
19017;DHT22;9641;51.494;6.670;2022-11-10T14:11:46;17.60;99.90
19017;DHT22;9641;51.494;6.670;2022-11-10T14:14:42;17.40;99.90
19017;DHT22;9641;51.494;6.670;2022-11-10T14:17:33;17.20;99.90
19017;DHT22;9641;51.494;6.670;2022-11-10T14:20:22;17.30;99.90
19017;DHT22;9641;51.494;6.670;2022-11-10T14:23:18;17.30;99.90
19017;DHT22;9641;51.494;6.670;2022-11-10T14:26:13;17.20;99.90
19017;DHT22;9641;51.494;6.670;2022-11-10T14:29:25;17.20;99.90
19017;DHT22;9641;51.494;6.670;2022-11-10T14:32:13;17.00;99.90
19017;DHT22;9641;51.494;6.670;2022-11-10T14:35:01;16.80;99.90
19017;DHT22;9641;51.494;6.670;2022-11-10T14:37:47;16.70;99.90
19017;DHT22;9641;51.494;6.670;2022-11-10T14:40:34;16.60;1.00
19017;DHT22;9641;51.494;6.670;2022-11-10T14:43:27;16.50;1.00
19017;DHT22;9641;51.494;6.670;2022-11-10T14:46:13;16.40;1.00
19017;DHT22;9641;51.494;6.670;2022-11-10T14:48:58;16.30;1.00
19017;DHT22;9641;51.494;6.670;2022-11-10T14:51:45;16.30;1.00
19017;DHT22;9641;51.494;6.670;2022-11-10T14:54:30;16.20;1.00
19017;DHT22;9641;51.494;6.670;2022-11-10T14:57:17;16.00;1.00
19017;DHT22;9641;51.494;6.670;2022-11-10T15:00:12;15.80;1.00
19017;DHT22;9641;51.494;6.670;2022-11-10T15:03:00;15.80;1.00
19017;DHT22;9641;51.494;6.670;2022-11-10T15:05:46;15.80;48.00
19017;DHT22;9641;51.494;6.670;2022-11-10T15:08:32;15.70;99.90
19017;DHT22;9641;51.494;6.670;2022-11-10T15:11:36;15.60;99.90
19017;DHT22;9641;51.494;6.670;2022-11-10T15:14:38;15.60;99.90
19017;DHT22;9641;51.494;6.670;2022-11-10T15:17:43;15.50;1.00
19017;DHT22;9641;51.494;6.670;2022-11-10T15:20:38;15.40;1.00
19017;DHT22;9641;51.494;6.670;2022-11-10T15:23:30;15.40;1.00
19017;DHT22;9641;51.494;6.670;2022-11-10T15:26:18;15.20;1.00
19017;DHT22;9641;51.494;6.670;2022-11-10T15:29:04;15.20;99.90
19017;DHT22;9641;51.494;6.670;2022-11-10T15:31:51;15.10;99.90
19017;DHT22;9641;51.494;6.670;2022-11-10T15:34:42;15.10;99.90
19017;DHT22;9641;51.494;6.670;2022-11-10T15:37:30;15.00;99.90
19017;DHT22;9641;51.494;6.670;2022-11-10T15:40:42;14.90;99.90
19017;DHT22;9641;51.494;6.670;2022-11-10T15:43:28;14.90;1.00
19017;DHT22;9641;51.494;6.670;2022-11-10T15:46:19;14.80;1.00
19017;DHT22;9641;51.494;6.670;2022-11-10T15:49:11;14.70;1.00
19017;DHT22;9641;51.494;6.670;2022-11-10T15:52:01;14.60;1.00
19017;DHT22;9641;51.494;6.670;2022-11-10T15:54:49;14.60;1.00
19017;DHT22;9641;51.494;6.670;2022-11-10T15:57:34;14.60;1.00
19017;DHT22;9641;51.494;6.670;2022-11-10T16:00:21;14.50;1.00
19017;DHT22;9641;51.494;6.670;2022-11-10T16:03:09;14.50;9.60
19017;DHT22;9641;51.494;6.670;2022-11-10T16:05:57;14.50;10.30
19017;DHT22;9641;51.494;6.670;2022-11-10T16:08:42;14.40;99.90
19017;DHT22;9641;51.494;6.670;2022-11-10T16:11:29;14.40;99.90
19017;DHT22;9641;51.494;6.670;2022-11-10T16:14:16;14.20;99.90
19017;DHT22;9641;51.494;6.670;2022-11-10T16:17:02;14.30;1.00
19017;DHT22;9641;51.494;6.670;2022-11-10T16:19:47;14.20;1.00
19017;DHT22;9641;51.494;6.670;2022-11-10T16:22:34;14.10;1.00
19017;DHT22;9641;51.494;6.670;2022-11-10T16:25:20;14.00;1.00
19017;DHT22;9641;51.494;6.670;2022-11-10T16:28:09;14.00;1.00
19017;DHT22;9641;51.494;6.670;2022-11-10T16:30:55;14.00;1.00
19017;DHT22;9641;51.494;6.670;2022-11-10T16:33:40;14.00;1.00
19017;DHT22;9641;51.494;6.670;2022-11-10T16:36:27;14.00;1.00
19017;DHT22;9641;51.494;6.670;2022-11-10T16:39:15;14.00;1.00
19017;DHT22;9641;51.494;6.670;2022-11-10T16:42:01;13.90;1.00
19017;DHT22;9641;51.494;6.670;2022-11-10T16:44:47;13.90;1.00
19017;DHT22;9641;51.494;6.670;2022-11-10T16:47:32;13.90;1.00
19017;DHT22;9641;51.494;6.670;2022-11-10T16:50:31;13.80;1.00
19017;DHT22;9641;51.494;6.670;2022-11-10T16:53:20;13.80;1.00
19017;DHT22;9641;51.494;6.670;2022-11-10T16:56:12;13.70;82.40
19017;DHT22;9641;51.494;6.670;2022-11-10T16:58:58;13.70;99.90
19017;DHT22;9641;51.494;6.670;2022-11-10T17:01:44;13.50;1.00
19017;DHT22;9641;51.494;6.670;2022-11-10T17:04:30;13.50;1.00
19017;DHT22;9641;51.494;6.670;2022-11-10T17:07:22;13.50;1.00
19017;DHT22;9641;51.494;6.670;2022-11-10T17:10:13;13.50;1.00
19017;DHT22;9641;51.494;6.670;2022-11-10T17:13:00;13.40;1.00
19017;DHT22;9641;51.494;6.670;2022-11-10T17:15:46;13.40;99.90
19017;DHT22;9641;51.494;6.670;2022-11-10T17:18:31;13.40;99.90
19017;DHT22;9641;51.494;6.670;2022-11-10T17:21:18;13.40;99.90
19017;DHT22;9641;51.494;6.670;2022-11-10T17:24:05;13.30;1.00
19017;DHT22;9641;51.494;6.670;2022-11-10T17:26:50;13.20;1.00
19017;DHT22;9641;51.494;6.670;2022-11-10T17:29:37;13.10;99.90
19017;DHT22;9641;51.494;6.670;2022-11-10T17:32:23;13.20;99.90
19017;DHT22;9641;51.494;6.670;2022-11-10T17:35:09;13.20;99.90
19017;DHT22;9641;51.494;6.670;2022-11-10T17:37:56;13.20;99.90
19017;DHT22;9641;51.494;6.670;2022-11-10T17:40:42;13.20;99.90
19017;DHT22;9641;51.494;6.670;2022-11-10T17:43:28;13.10;1.00
19017;DHT22;9641;51.494;6.670;2022-11-10T17:46:15;13.10;1.00
19017;DHT22;9641;51.494;6.670;2022-11-10T17:49:00;13.00;1.00
19017;DHT22;9641;51.494;6.670;2022-11-10T17:51:46;13.10;1.00
19017;DHT22;9641;51.494;6.670;2022-11-10T17:54:32;13.10;1.00
19017;DHT22;9641;51.494;6.670;2022-11-10T17:57:17;13.10;99.90
19017;DHT22;9641;51.494;6.670;2022-11-10T18:00:03;13.10;99.90
19017;DHT22;9641;51.494;6.670;2022-11-10T18:02:51;13.10;99.90
19017;DHT22;9641;51.494;6.670;2022-11-10T18:05:37;13.00;1.00
19017;DHT22;9641;51.494;6.670;2022-11-10T18:08:23;13.00;1.00
19017;DHT22;9641;51.494;6.670;2022-11-10T18:11:09;12.90;1.00
19017;DHT22;9641;51.494;6.670;2022-11-10T18:13:55;12.80;1.00
19017;DHT22;9641;51.494;6.670;2022-11-10T18:16:41;12.80;1.00
19017;DHT22;9641;51.494;6.670;2022-11-10T18:19:28;12.70;99.90
19017;DHT22;9641;51.494;6.670;2022-11-10T18:22:14;12.60;99.90
19017;DHT22;9641;51.494;6.670;2022-11-10T18:24:59;12.60;99.90
19017;DHT22;9641;51.494;6.670;2022-11-10T18:27:47;12.50;99.90
19017;DHT22;9641;51.494;6.670;2022-11-10T18:30:32;12.50;1.00